Time;durP1;ratioP1;P1;durP2;ratioP2;P2;SDS_P1;SDS_P2;PMS_P1;PMS_P2;Temp;Humidity;BMP_temperature;BMP_pressure;BME280_temperature;BME280_humidity;BME280_pressure;Samples;Min_cycle;Max_cycle;Signal;HPM_P1;HPM_P2
2022/03/13 00:02:07;;;;;;;25.10;17.90;;;;;;;;;;5034725;28;20249;-75
2022/03/13 00:04:35;;;;;;;20.90;16.40;;;;;;;;;;5053911;28;20224;-73
2022/03/13 00:07:16;;;;;;;23.07;17.13;;;;;;;;;;5053063;28;20209;-73
2022/03/13 00:09:46;;;;;;;23.70;17.07;;;;;;;;;;5063362;28;20294;-73
2022/03/13 00:12:14;;;;;;;24.30;17.80;;;;;;;;;;5063092;28;20205;-73
2022/03/13 00:14:42;;;;;;;23.87;17.00;;;;;;;;;;5063008;28;20252;-73
2022/03/13 00:17:11;;;;;;;21.60;17.03;;;;;;;;;;5053010;28;20205;-73
2022/03/13 00:19:38;;;;;;;25.03;17.60;;;;;;;;;;5056806;28;20207;-73
2022/03/13 00:22:06;;;;;;;21.57;17.30;;;;;;;;;;5072615;28;20224;-73
2022/03/13 00:24:34;;;;;;;23.93;17.33;;;;;;;;;;5069356;28;20293;-73
2022/03/13 00:27:03;;;;;;;22.83;17.53;;;;;;;;;;5056183;28;20233;-73
2022/03/13 00:29:30;;;;;;;22.77;17.77;;;;;;;;;;5052785;28;20300;-73
2022/03/13 00:31:57;;;;;;;23.93;17.03;;;;;;;;;;5053738;28;20219;-73
2022/03/13 00:34:25;;;;;;;25.33;17.60;;;;;;;;;;5053243;28;20232;-73
2022/03/13 00:36:52;;;;;;;25.30;18.77;;;;;;;;;;5055109;28;20194;-73
2022/03/13 00:39:19;;;;;;;26.77;18.30;;;;;;;;;;5069734;28;20205;-73
2022/03/13 00:41:47;;;;;;;22.67;17.07;;;;;;;;;;5053119;28;20236;-72
2022/03/13 00:44:15;;;;;;;23.57;18.20;;;;;;;;;;5052745;28;20244;-72
2022/03/13 00:46:43;;;;;;;23.67;16.37;;;;;;;;;;5052452;28;20288;-72
2022/03/13 00:49:10;;;;;;;28.13;18.93;;;;;;;;;;5052616;28;20216;-74
2022/03/13 00:51:37;;;;;;;28.17;18.30;;;;;;;;;;5059521;28;20251;-73
2022/03/13 00:54:05;;;;;;;25.27;18.53;;;;;;;;;;5051998;28;20237;-73
2022/03/13 00:56:32;;;;;;;25.27;17.80;;;;;;;;;;5052998;28;20230;-73
2022/03/13 00:59:00;;;;;;;27.43;18.37;;;;;;;;;;5060638;28;20207;-73
2022/03/13 01:01:28;;;;;;;25.43;18.47;;;;;;;;;;5053867;28;20300;-73
2022/03/13 01:03:55;;;;;;;27.47;19.23;;;;;;;;;;5052375;28;20664;-73
2022/03/13 01:06:23;;;;;;;24.20;18.03;;;;;;;;;;5058174;28;20274;-73
2022/03/13 01:08:52;;;;;;;23.83;17.87;;;;;;;;;;5063608;28;20288;-73
2022/03/13 01:11:20;;;;;;;28.30;18.93;;;;;;;;;;5067649;28;20270;-73
2022/03/13 01:13:48;;;;;;;24.83;18.23;;;;;;;;;;5056322;28;20217;-73
2022/03/13 01:16:17;;;;;;;23.73;18.50;;;;;;;;;;5052425;28;20231;-73
2022/03/13 01:18:47;;;;;;;24.37;18.33;;;;;;;;;;5051912;28;20304;-73
2022/03/13 01:21:14;;;;;;;24.40;18.33;;;;;;;;;;5052360;28;20209;-73
2022/03/13 01:23:42;;;;;;;26.73;18.60;;;;;;;;;;5053706;28;20221;-73
2022/03/13 01:26:30;;;;;;;23.37;17.23;;;;;;;;;;5056713;28;20213;-73
2022/03/13 01:28:58;;;;;;;24.80;17.77;;;;;;;;;;5058068;28;20209;-74
2022/03/13 01:31:26;;;;;;;26.10;18.43;;;;;;;;;;5056508;28;20574;-72
2022/03/13 01:33:54;;;;;;;25.47;18.30;;;;;;;;;;5059955;28;20280;-73
2022/03/13 01:36:22;;;;;;;23.80;17.97;;;;;;;;;;5052079;28;20282;-73
2022/03/13 01:38:49;;;;;;;25.07;16.83;;;;;;;;;;5055560;28;20224;-73
2022/03/13 01:41:16;;;;;;;25.90;18.23;;;;;;;;;;5066482;28;20208;-74
2022/03/13 01:43:44;;;;;;;27.37;18.00;;;;;;;;;;5052583;28;20320;-73
2022/03/13 01:46:11;;;;;;;24.33;17.83;;;;;;;;;;5056238;28;20257;-73
2022/03/13 01:48:40;;;;;;;25.93;18.17;;;;;;;;;;5052930;28;20205;-74
2022/03/13 01:51:09;;;;;;;24.43;17.67;;;;;;;;;;5062628;28;20205;-73
2022/03/13 01:53:36;;;;;;;25.87;18.73;;;;;;;;;;5068693;28;20266;-73
2022/03/13 01:56:03;;;;;;;23.93;18.03;;;;;;;;;;5070973;28;20635;-73
2022/03/13 01:58:30;;;;;;;23.80;17.90;;;;;;;;;;5061976;28;20205;-73
2022/03/13 02:00:59;;;;;;;28.40;18.43;;;;;;;;;;5071247;28;20217;-73
2022/03/13 02:03:28;;;;;;;22.77;17.63;;;;;;;;;;5070037;28;20329;-74
2022/03/13 02:05:55;;;;;;;22.97;17.40;;;;;;;;;;5071168;28;20246;-74
2022/03/13 02:08:24;;;;;;;25.30;18.27;;;;;;;;;;5053413;28;20304;-73
2022/03/13 02:10:51;;;;;;;24.53;17.70;;;;;;;;;;5051641;28;20230;-73
2022/03/13 02:13:19;;;;;;;24.50;17.53;;;;;;;;;;5051097;28;20284;-73
2022/03/13 02:15:48;;;;;;;25.73;18.23;;;;;;;;;;5051727;28;20248;-74
2022/03/13 02:18:15;;;;;;;23.67;16.50;;;;;;;;;;5051012;28;20307;-73
2022/03/13 02:20:44;;;;;;;26.17;18.70;;;;;;;;;;5052040;28;20212;-73
2022/03/13 02:23:22;;;;;;;21.77;16.73;;;;;;;;;;5051069;28;20229;-73
2022/03/13 02:25:51;;;;;;;23.37;18.43;;;;;;;;;;5050909;28;20208;-74
2022/03/13 02:28:20;;;;;;;24.87;17.03;;;;;;;;;;5055043;28;20261;-73
2022/03/13 02:30:47;;;;;;;25.17;16.83;;;;;;;;;;5051943;28;20220;-73
2022/03/13 02:33:14;;;;;;;25.17;18.07;;;;;;;;;;5051923;28;20228;-73
2022/03/13 02:35:41;;;;;;;24.87;16.97;;;;;;;;;;5048039;28;20288;-73
2022/03/13 02:38:08;;;;;;;24.63;17.40;;;;;;;;;;5056768;28;20196;-73
2022/03/13 02:40:38;;;;;;;26.43;17.63;;;;;;;;;;5072920;28;20268;-73
2022/03/13 02:43:05;;;;;;;28.07;17.73;;;;;;;;;;5054511;28;20228;-73
2022/03/13 02:45:33;;;;;;;25.27;17.57;;;;;;;;;;5055024;28;20300;-73
2022/03/13 02:48:01;;;;;;;25.70;17.03;;;;;;;;;;5053354;28;20289;-73
2022/03/13 02:50:28;;;;;;;24.10;16.87;;;;;;;;;;5054903;28;20209;-73
2022/03/13 02:52:55;;;;;;;23.87;17.03;;;;;;;;;;5058215;28;20300;-73
2022/03/13 02:55:23;;;;;;;21.53;16.10;;;;;;;;;;5054885;28;20288;-73
2022/03/13 02:57:52;;;;;;;24.63;17.70;;;;;;;;;;5058594;28;20528;-73
2022/03/13 03:00:20;;;;;;;22.33;15.83;;;;;;;;;;5074379;28;20204;-73
2022/03/13 03:02:48;;;;;;;23.70;17.03;;;;;;;;;;5063386;28;20231;-73
2022/03/13 03:05:16;;;;;;;24.17;17.33;;;;;;;;;;5059245;28;20207;-73
2022/03/13 03:07:43;;;;;;;21.50;15.47;;;;;;;;;;5064049;28;20213;-73
2022/03/13 03:10:12;;;;;;;22.73;17.33;;;;;;;;;;5054906;28;20248;-73
2022/03/13 03:12:39;;;;;;;24.93;17.20;;;;;;;;;;5054697;28;20279;-73
2022/03/13 03:15:08;;;;;;;26.63;17.47;;;;;;;;;;5055309;28;20303;-73
2022/03/13 03:17:36;;;;;;;23.40;16.87;;;;;;;;;;5053917;28;20232;-73
2022/03/13 03:20:05;;;;;;;23.37;17.80;;;;;;;;;;5054887;28;20216;-73
2022/03/13 03:25:08;;;;;;;21.67;17.07;;;;;;;;;;5112469;28;20360;-75
2022/03/13 03:27:35;;;;;;;23.50;17.63;;;;;;;;;;5112417;28;20230;-74
2022/03/13 03:30:02;;;;;;;22.93;17.33;;;;;;;;;;5115045;28;20215;-74
2022/03/13 03:32:31;;;;;;;23.50;17.53;;;;;;;;;;5113179;28;20235;-74
2022/03/13 03:34:58;;;;;;;26.63;17.60;;;;;;;;;;5114352;28;20231;-74
2022/03/13 03:37:26;;;;;;;22.73;16.43;;;;;;;;;;5101778;28;20287;-75
2022/03/13 03:39:53;;;;;;;23.83;17.83;;;;;;;;;;5094829;28;20210;-74
2022/03/13 03:42:21;;;;;;;24.87;17.37;;;;;;;;;;5102486;28;20680;-74
2022/03/13 03:44:48;;;;;;;22.67;15.87;;;;;;;;;;5095058;28;20223;-75
2022/03/13 03:47:16;;;;;;;21.80;17.37;;;;;;;;;;5108990;28;20248;-75
2022/03/13 03:49:44;;;;;;;22.43;16.43;;;;;;;;;;5114279;28;20203;-74
2022/03/13 03:52:11;;;;;;;23.17;16.77;;;;;;;;;;5113608;28;20290;-75
2022/03/13 03:54:39;;;;;;;24.60;17.63;;;;;;;;;;5113604;28;20613;-74
2022/03/13 03:57:06;;;;;;;22.23;16.60;;;;;;;;;;5101987;28;20210;-75
2022/03/13 03:59:33;;;;;;;26.00;17.50;;;;;;;;;;5094097;28;20226;-74
2022/03/13 04:02:00;;;;;;;23.57;17.03;;;;;;;;;;5100875;28;20279;-74
2022/03/13 04:04:27;;;;;;;24.27;17.67;;;;;;;;;;5093506;28;20234;-74
2022/03/13 04:06:56;;;;;;;23.90;16.90;;;;;;;;;;5104359;28;20203;-74
2022/03/13 04:09:23;;;;;;;21.50;16.40;;;;;;;;;;5113635;28;20286;-74
2022/03/13 04:11:52;;;;;;;20.90;16.27;;;;;;;;;;5112561;28;20217;-74
2022/03/13 04:14:21;;;;;;;26.47;17.07;;;;;;;;;;5109230;28;20310;-74
2022/03/13 04:16:48;;;;;;;22.73;17.60;;;;;;;;;;5112821;28;20199;-74
2022/03/13 04:19:16;;;;;;;23.60;17.40;;;;;;;;;;5113770;28;20274;-74
2022/03/13 04:21:44;;;;;;;23.63;17.63;;;;;;;;;;5113448;28;20211;-74
2022/03/13 04:24:13;;;;;;;25.90;17.67;;;;;;;;;;5113152;28;20231;-74
2022/03/13 04:26:40;;;;;;;23.53;17.00;;;;;;;;;;5109521;28;20195;-75
2022/03/13 04:29:09;;;;;;;22.60;16.40;;;;;;;;;;5113402;28;20195;-74
2022/03/13 04:31:37;;;;;;;24.57;17.27;;;;;;;;;;5110423;28;20221;-74
2022/03/13 04:34:05;;;;;;;22.67;17.00;;;;;;;;;;5093333;28;20230;-74
2022/03/13 04:36:33;;;;;;;22.63;16.80;;;;;;;;;;5100686;28;20229;-74
2022/03/13 04:39:01;;;;;;;23.30;17.00;;;;;;;;;;5112919;28;20211;-74
2022/03/13 04:41:29;;;;;;;21.67;16.40;;;;;;;;;;5107423;28;20221;-73
2022/03/13 04:43:57;;;;;;;27.03;17.30;;;;;;;;;;5102704;28;20217;-74
2022/03/13 04:46:24;;;;;;;23.23;16.93;;;;;;;;;;5110445;28;20199;-74
2022/03/13 04:48:52;;;;;;;21.33;16.00;;;;;;;;;;5112686;28;20222;-73
2022/03/13 04:51:20;;;;;;;23.47;16.53;;;;;;;;;;5109713;28;20199;-74
2022/03/13 04:53:47;;;;;;;22.83;16.80;;;;;;;;;;5106593;28;20299;-74
2022/03/13 04:56:14;;;;;;;23.13;15.87;;;;;;;;;;5108892;28;20211;-74
2022/03/13 04:58:43;;;;;;;25.40;16.97;;;;;;;;;;5112033;28;20199;-74
2022/03/13 05:01:11;;;;;;;24.50;17.30;;;;;;;;;;5104029;28;20287;-74
2022/03/13 05:03:38;;;;;;;24.83;18.17;;;;;;;;;;5093070;28;20223;-74
2022/03/13 05:06:05;;;;;;;24.43;17.33;;;;;;;;;;5105382;28;20285;-74
2022/03/13 05:08:34;;;;;;;23.67;17.27;;;;;;;;;;5111989;28;20208;-74
2022/03/13 05:11:03;;;;;;;25.97;18.63;;;;;;;;;;5103945;28;20204;-74
2022/03/13 05:13:30;;;;;;;27.60;18.03;;;;;;;;;;5097371;28;20263;-74
2022/03/13 05:15:58;;;;;;;24.60;18.43;;;;;;;;;;5097528;28;20286;-75
2022/03/13 05:18:26;;;;;;;25.67;18.77;;;;;;;;;;5107228;28;20295;-74
2022/03/13 05:20:53;;;;;;;25.90;18.70;;;;;;;;;;5111960;28;20211;-74
2022/03/13 05:23:20;;;;;;;24.53;18.03;;;;;;;;;;5112184;28;20239;-74
2022/03/13 05:25:48;;;;;;;24.90;18.13;;;;;;;;;;5112382;28;20207;-74
2022/03/13 05:28:15;;;;;;;25.73;18.80;;;;;;;;;;5112054;28;20268;-74
2022/03/13 05:30:43;;;;;;;25.87;17.77;;;;;;;;;;5104587;28;20253;-74
2022/03/13 05:33:11;;;;;;;23.73;16.80;;;;;;;;;;5092389;28;20315;-74
2022/03/13 05:35:39;;;;;;;27.53;19.43;;;;;;;;;;5098108;28;20654;-73
2022/03/13 05:38:06;;;;;;;21.13;16.33;;;;;;;;;;5096979;28;20200;-74
2022/03/13 05:40:36;;;;;;;26.60;18.00;;;;;;;;;;5097000;28;20214;-73
2022/03/13 05:43:04;;;;;;;22.53;15.80;;;;;;;;;;5091293;28;20228;-73
2022/03/13 05:45:32;;;;;;;23.47;17.17;;;;;;;;;;5106700;28;20203;-75
2022/03/13 05:48:00;;;;;;;25.27;17.83;;;;;;;;;;5111357;28;20198;-73
2022/03/13 05:50:29;;;;;;;25.20;17.97;;;;;;;;;;5109945;28;20203;-74
2022/03/13 05:52:57;;;;;;;23.67;18.17;;;;;;;;;;5111947;28;20234;-74
2022/03/13 05:55:25;;;;;;;26.63;19.20;;;;;;;;;;5101107;28;20224;-74
2022/03/13 05:57:53;;;;;;;23.87;18.60;;;;;;;;;;5109898;28;20294;-75
2022/03/13 06:00:21;;;;;;;25.07;18.70;;;;;;;;;;5104088;28;20199;-74
2022/03/13 06:02:48;;;;;;;25.53;18.73;;;;;;;;;;5092351;28;20204;-75
2022/03/13 06:05:17;;;;;;;25.23;18.57;;;;;;;;;;5095857;28;20272;-74
2022/03/13 06:07:46;;;;;;;26.13;19.07;;;;;;;;;;5091843;28;20211;-75
2022/03/13 06:10:14;;;;;;;25.97;17.80;;;;;;;;;;5101983;28;20242;-74
2022/03/13 06:12:42;;;;;;;24.90;17.40;;;;;;;;;;5110525;28;20213;-74
2022/03/13 06:15:11;;;;;;;24.90;18.07;;;;;;;;;;5101446;28;20219;-74
2022/03/13 06:17:40;;;;;;;22.43;17.00;;;;;;;;;;5103214;28;20203;-75
2022/03/13 06:20:10;;;;;;;23.43;17.07;;;;;;;;;;5100432;28;20199;-75
2022/03/13 06:22:37;;;;;;;22.53;17.30;;;;;;;;;;5111645;28;20294;-74
2022/03/13 06:25:06;;;;;;;23.83;16.93;;;;;;;;;;5109983;28;20290;-74
2022/03/13 06:27:33;;;;;;;26.30;17.83;;;;;;;;;;5106507;28;20191;-74
2022/03/13 06:30:10;;;;;;;22.93;17.67;;;;;;;;;;5096158;28;20211;-75
2022/03/13 06:32:37;;;;;;;21.90;16.70;;;;;;;;;;5100376;28;20218;-75
2022/03/13 06:35:05;;;;;;;24.33;18.10;;;;;;;;;;5109935;28;20210;-77
2022/03/13 06:37:34;;;;;;;26.73;18.60;;;;;;;;;;5106380;28;20244;-76
2022/03/13 06:40:01;;;;;;;24.53;18.70;;;;;;;;;;5104432;28;20199;-76
2022/03/13 06:42:30;;;;;;;24.73;18.80;;;;;;;;;;5106996;28;20207;-74
2022/03/13 06:44:57;;;;;;;24.33;18.83;;;;;;;;;;5106555;28;20219;-75
2022/03/13 06:47:24;;;;;;;27.50;19.97;;;;;;;;;;5104961;28;20248;-74
2022/03/13 06:49:52;;;;;;;27.57;19.17;;;;;;;;;;5113220;28;20191;-75
2022/03/13 06:52:19;;;;;;;28.90;19.53;;;;;;;;;;5108190;28;20649;-76
2022/03/13 06:54:48;;;;;;;25.10;18.97;;;;;;;;;;5113261;28;20286;-77
2022/03/13 06:57:16;;;;;;;27.93;19.13;;;;;;;;;;5111159;28;20203;-77
2022/03/13 06:59:46;;;;;;;26.43;18.97;;;;;;;;;;5107534;28;20210;-77
2022/03/13 07:02:14;;;;;;;24.63;18.50;;;;;;;;;;5108506;28;20200;-76
2022/03/13 07:04:41;;;;;;;22.60;18.03;;;;;;;;;;5113464;28;20215;-76
2022/03/13 07:07:09;;;;;;;23.80;18.63;;;;;;;;;;5107133;28;20199;-76
2022/03/13 07:09:39;;;;;;;22.93;17.77;;;;;;;;;;5113690;28;20214;-76
2022/03/13 07:12:10;;;;;;;23.07;17.73;;;;;;;;;;5103052;28;20206;-75
2022/03/13 07:14:37;;;;;;;23.10;18.33;;;;;;;;;;5109563;28;20223;-76
2022/03/13 07:17:06;;;;;;;23.70;18.57;;;;;;;;;;5103072;28;20358;-76
2022/03/13 07:19:33;;;;;;;24.87;18.83;;;;;;;;;;5111838;28;20287;-78
2022/03/13 07:22:03;;;;;;;23.27;17.87;;;;;;;;;;5111586;28;20206;-76
2022/03/13 07:24:31;;;;;;;23.63;17.97;;;;;;;;;;5107569;28;20238;-75
2022/03/13 07:27:00;;;;;;;22.03;16.60;;;;;;;;;;5106329;28;20248;-79
2022/03/13 07:29:27;;;;;;;20.13;16.80;;;;;;;;;;5108457;28;20199;-74
2022/03/13 07:31:56;;;;;;;22.33;16.10;;;;;;;;;;5106334;28;20233;-78
2022/03/13 07:34:25;;;;;;;20.17;15.30;;;;;;;;;;5109220;28;20223;-77
2022/03/13 07:36:52;;;;;;;21.43;14.90;;;;;;;;;;5101038;28;20256;-74
2022/03/13 07:39:21;;;;;;;19.07;14.87;;;;;;;;;;5107665;28;20252;-74
2022/03/13 07:41:48;;;;;;;17.73;15.07;;;;;;;;;;5100205;28;20212;-76
2022/03/13 07:44:15;;;;;;;18.03;14.77;;;;;;;;;;5103738;28;20316;-75
2022/03/13 07:46:42;;;;;;;18.97;14.50;;;;;;;;;;5102399;28;20258;-75
2022/03/13 07:49:10;;;;;;;19.27;14.30;;;;;;;;;;5110015;28;20222;-74
2022/03/13 07:51:48;;;;;;;17.43;14.30;;;;;;;;;;5110065;28;20198;-79
2022/03/13 07:54:19;;;;;;;15.60;12.67;;;;;;;;;;5107680;28;20230;-75
2022/03/13 07:56:47;;;;;;;17.53;13.83;;;;;;;;;;5103233;28;20210;-73
2022/03/13 07:59:14;;;;;;;17.13;13.50;;;;;;;;;;5097976;28;20644;-75
2022/03/13 08:01:41;;;;;;;17.40;13.90;;;;;;;;;;5099103;28;20202;-75
2022/03/13 08:04:08;;;;;;;15.00;12.93;;;;;;;;;;5105914;28;20215;-75
2022/03/13 08:06:39;;;;;;;18.10;13.73;;;;;;;;;;5100995;28;20201;-75
2022/03/13 08:09:08;;;;;;;18.93;14.27;;;;;;;;;;5097205;28;20196;-75
2022/03/13 08:11:36;;;;;;;17.07;13.77;;;;;;;;;;5096437;28;20209;-75
2022/03/13 08:14:03;;;;;;;17.80;14.40;;;;;;;;;;5098886;28;20215;-75
2022/03/13 08:16:30;;;;;;;17.83;13.77;;;;;;;;;;5101315;28;20266;-75
2022/03/13 08:18:58;;;;;;;14.50;12.77;;;;;;;;;;5099776;28;20199;-75
2022/03/13 08:21:25;;;;;;;18.80;14.53;;;;;;;;;;5099056;28;20283;-75
2022/03/13 08:23:52;;;;;;;16.80;13.50;;;;;;;;;;5099630;28;20292;-75
2022/03/13 08:26:21;;;;;;;16.80;13.60;;;;;;;;;;5099105;28;20245;-75
2022/03/13 08:28:48;;;;;;;16.47;13.13;;;;;;;;;;5100294;28;20226;-76
2022/03/13 08:31:17;;;;;;;16.33;13.23;;;;;;;;;;5100781;28;20260;-75
2022/03/13 08:33:45;;;;;;;17.53;13.30;;;;;;;;;;5100618;28;20219;-82
2022/03/13 08:36:12;;;;;;;16.20;14.00;;;;;;;;;;5099590;28;20254;-75
2022/03/13 08:38:42;;;;;;;17.60;13.57;;;;;;;;;;5089790;28;20195;-82
2022/03/13 08:41:09;;;;;;;15.97;12.97;;;;;;;;;;5101981;28;20211;-77
2022/03/13 08:43:38;;;;;;;16.33;13.03;;;;;;;;;;5095505;28;20227;-77
2022/03/13 08:46:05;;;;;;;16.93;14.87;;;;;;;;;;5101186;28;20215;-79
2022/03/13 08:48:34;;;;;;;16.90;13.93;;;;;;;;;;5099880;28;20192;-77
2022/03/13 08:51:01;;;;;;;16.93;14.77;;;;;;;;;;5100450;28;20191;-76
2022/03/13 08:53:28;;;;;;;16.53;13.97;;;;;;;;;;5108938;28;20276;-77
2022/03/13 08:55:56;;;;;;;14.73;13.13;;;;;;;;;;5105049;28;20314;-76
2022/03/13 08:58:24;;;;;;;17.70;15.30;;;;;;;;;;5108652;28;20202;-77
2022/03/13 09:00:54;;;;;;;18.00;14.40;;;;;;;;;;5110426;28;20202;-79
2022/03/13 09:03:21;;;;;;;18.17;14.70;;;;;;;;;;5110478;28;20219;-76
2022/03/13 09:05:48;;;;;;;19.83;15.20;;;;;;;;;;5111584;28;20227;-77
2022/03/13 09:08:16;;;;;;;19.77;15.67;;;;;;;;;;5108755;28;20214;-76
2022/03/13 09:10:44;;;;;;;19.07;16.13;;;;;;;;;;5111680;28;20234;-79
2022/03/13 09:13:12;;;;;;;17.87;15.07;;;;;;;;;;5109841;28;20309;-81
2022/03/13 09:15:40;;;;;;;19.70;16.03;;;;;;;;;;5110486;28;20223;-77
2022/03/13 09:18:08;;;;;;;18.63;15.23;;;;;;;;;;5109669;28;20241;-77
2022/03/13 09:20:36;;;;;;;20.53;15.40;;;;;;;;;;5106898;28;20272;-77
2022/03/13 09:25:50;;;;;;;19.57;15.47;;;;;;;;;;5079966;28;20212;-76
2022/03/13 09:28:43;;;;;;;;;;;;;;;;;;;;;
2022/03/13 09:31:39;;;;;;;18.53;15.20;;;;;;;;;;4981615;28;20219;-80
2022/03/13 09:34:08;;;;;;;18.30;14.47;;;;;;;;;;4992199;28;20223;-78
2022/03/13 09:36:36;;;;;;;16.43;14.50;;;;;;;;;;5049590;28;20290;-77
2022/03/13 09:39:05;;;;;;;17.60;14.23;;;;;;;;;;5074632;28;20204;-80
2022/03/13 09:41:41;;;;;;;17.77;14.57;;;;;;;;;;5077033;28;20358;-80
2022/03/13 09:47:40;;;;;;;19.10;14.90;;;;;;;;;;5076242;28;20186;-79
2022/03/13 09:53:11;;;;;;;18.13;16.13;;;;;;;;;;5011438;28;20194;-81
2022/03/13 09:55:40;;;;;;;19.50;16.23;;;;;;;;;;5069504;28;20220;-81
2022/03/13 09:58:09;;;;;;;21.67;16.67;;;;;;;;;;5069747;28;20226;-77
2022/03/13 10:06:56;;;;;;;19.43;16.23;;;;;;;;;;5013691;28;20202;-83
2022/03/13 10:09:29;;;;;;;20.00;16.70;;;;;;;;;;5061490;28;20205;-76
2022/03/13 10:12:07;;;;;;;19.70;16.23;;;;;;;;;;5071428;28;20196;-77
2022/03/13 10:14:40;;;;;;;22.97;17.60;;;;;;;;;;5074077;28;20255;-81
2022/03/13 10:17:28;;;;;;;19.40;16.43;;;;;;;;;;5073785;28;20220;-77
2022/03/13 10:20:11;;;;;;;19.33;16.93;;;;;;;;;;5074549;28;20207;-78
2022/03/13 10:22:41;;;;;;;18.50;16.50;;;;;;;;;;5070782;28;20200;-76
2022/03/13 10:25:13;;;;;;;20.10;16.90;;;;;;;;;;5071253;28;20232;-77
2022/03/13 10:27:40;;;;;;;20.90;17.13;;;;;;;;;;5070530;28;20196;-76
2022/03/13 10:30:08;;;;;;;18.70;15.93;;;;;;;;;;5070966;28;20254;-76
2022/03/13 10:32:36;;;;;;;24.20;17.33;;;;;;;;;;5068937;28;20250;-76
2022/03/13 10:35:04;;;;;;;22.20;17.23;;;;;;;;;;5070605;28;20255;-76
2022/03/13 10:37:38;;;;;;;20.20;17.13;;;;;;;;;;5070623;28;20571;-76
2022/03/13 10:40:23;;;;;;;19.13;16.17;;;;;;;;;;5068117;28;20204;-76
2022/03/13 10:42:53;;;;;;;19.30;15.20;;;;;;;;;;5070045;28;20203;-76
2022/03/13 10:45:36;;;;;;;20.57;16.87;;;;;;;;;;5071144;28;20227;-76
2022/03/13 10:48:21;;;;;;;20.53;16.70;;;;;;;;;;5070258;28;20212;-77
2022/03/13 10:50:50;;;;;;;19.17;16.43;;;;;;;;;;5064707;28;20212;-76
2022/03/13 10:53:18;;;;;;;21.70;17.77;;;;;;;;;;5071068;28;20227;-76
2022/03/13 10:55:45;;;;;;;19.97;16.53;;;;;;;;;;5080614;28;20217;-82
2022/03/13 10:58:16;;;;;;;21.03;17.57;;;;;;;;;;5075467;28;20258;-79
2022/03/13 11:00:43;;;;;;;19.70;17.07;;;;;;;;;;5072990;28;20193;-75
2022/03/13 11:03:11;;;;;;;23.97;19.03;;;;;;;;;;5074775;28;20247;-80
2022/03/13 11:05:39;;;;;;;21.57;17.80;;;;;;;;;;5073786;28;20204;-75
2022/03/13 11:08:07;;;;;;;20.07;16.83;;;;;;;;;;5069548;28;20197;-76
2022/03/13 11:10:40;;;;;;;22.20;17.90;;;;;;;;;;5067507;28;20354;-82
2022/03/13 11:13:08;;;;;;;20.93;18.17;;;;;;;;;;5067926;28;20395;-75
2022/03/13 11:15:41;;;;;;;21.13;17.50;;;;;;;;;;5073408;28;20208;-75
2022/03/13 11:18:12;;;;;;;19.63;15.37;;;;;;;;;;5071535;28;20201;-74
2022/03/13 11:20:43;;;;;;;20.30;17.47;;;;;;;;;;5073988;28;20197;-75
2022/03/13 11:23:12;;;;;;;24.63;19.03;;;;;;;;;;5071523;28;20209;-76
2022/03/13 11:25:40;;;;;;;23.07;18.83;;;;;;;;;;5072176;28;20217;-76
2022/03/13 11:28:07;;;;;;;24.80;18.93;;;;;;;;;;5072383;28;20200;-75
2022/03/13 11:30:36;;;;;;;22.10;17.53;;;;;;;;;;5074543;28;20216;-75
2022/03/13 11:33:07;;;;;;;22.87;18.23;;;;;;;;;;5073513;28;20228;-86
2022/03/13 11:35:37;;;;;;;20.63;17.50;;;;;;;;;;5070738;28;20323;-75
2022/03/13 11:38:25;;;;;;;23.37;18.27;;;;;;;;;;5073176;28;20207;-75
2022/03/13 11:40:55;;;;;;;23.97;18.77;;;;;;;;;;5079729;28;20227;-76
2022/03/13 11:43:23;;;;;;;21.83;17.93;;;;;;;;;;5071852;28;20216;-78
2022/03/13 11:45:53;;;;;;;21.60;17.87;;;;;;;;;;5092962;28;20197;-76
2022/03/13 11:48:41;;;;;;;22.23;18.73;;;;;;;;;;5074741;28;20744;-76
2022/03/13 11:51:09;;;;;;;24.20;18.33;;;;;;;;;;5074297;28;20204;-76
2022/03/13 11:53:44;;;;;;;25.90;19.73;;;;;;;;;;5070579;28;20224;-75
2022/03/13 11:56:13;;;;;;;24.85;18.52;;;;;;;;;;5075931;28;20254;-75
2022/03/13 11:58:45;;;;;;;22.35;18.20;;;;;;;;;;5074740;28;20295;-76
2022/03/13 12:01:21;;;;;;;22.55;17.80;;;;;;;;;;5074985;28;20213;-75
2022/03/13 12:04:07;;;;;;;21.98;18.42;;;;;;;;;;5074564;28;20239;-75
2022/03/13 12:06:41;;;;;;;20.92;17.83;;;;;;;;;;5074404;28;20287;-75
2022/03/13 12:09:09;;;;;;;23.55;18.67;;;;;;;;;;5074514;28;20211;-75
2022/03/13 12:11:38;;;;;;;24.38;18.15;;;;;;;;;;5074635;28;20208;-75
2022/03/13 12:14:07;;;;;;;21.75;17.98;;;;;;;;;;5074550;28;20232;-75
2022/03/13 12:16:35;;;;;;;23.17;18.08;;;;;;;;;;5073529;28;20609;-75
2022/03/13 12:19:02;;;;;;;20.98;17.58;;;;;;;;;;5074121;28;20224;-74
2022/03/13 12:21:32;;;;;;;22.40;18.55;;;;;;;;;;5074500;28;20347;-75
2022/03/13 12:24:12;;;;;;;21.02;17.67;;;;;;;;;;5074043;28;20236;-75
2022/03/13 12:26:40;;;;;;;20.35;16.85;;;;;;;;;;5072981;28;20212;-75
2022/03/13 12:29:08;;;;;;;21.98;17.73;;;;;;;;;;5073860;28;20239;-75
2022/03/13 12:31:46;;;;;;;23.67;17.98;;;;;;;;;;5073743;28;20232;-75
2022/03/13 12:34:13;;;;;;;22.52;18.05;;;;;;;;;;5073398;28;20235;-76
2022/03/13 12:36:41;;;;;;;21.30;17.48;;;;;;;;;;5072678;28;20228;-75
2022/03/13 12:39:11;;;;;;;21.25;17.65;;;;;;;;;;5073522;28;20234;-75
2022/03/13 12:41:44;;;;;;;22.65;18.15;;;;;;;;;;5073674;28;20295;-75
2022/03/13 12:44:16;;;;;;;21.52;17.80;;;;;;;;;;5073080;28;20232;-75
2022/03/13 12:46:43;;;;;;;19.70;17.58;;;;;;;;;;5073230;28;20213;-75
2022/03/13 12:49:13;;;;;;;23.10;17.95;;;;;;;;;;5073643;28;20300;-75
2022/03/13 12:51:44;;;;;;;23.02;18.27;;;;;;;;;;5073863;28;20257;-75
2022/03/13 12:54:12;;;;;;;23.27;17.85;;;;;;;;;;5073368;28;20229;-75
2022/03/13 12:56:49;;;;;;;22.20;17.88;;;;;;;;;;5072476;28;20224;-75
2022/03/13 12:59:28;;;;;;;23.42;18.05;;;;;;;;;;5067732;28;20208;-74
2022/03/13 13:02:05;;;;;;;21.10;17.33;;;;;;;;;;5073292;28;20684;-75
2022/03/13 13:04:32;;;;;;;23.70;19.10;;;;;;;;;;5073034;28;20720;-75
2022/03/13 13:06:59;;;;;;;21.60;17.58;;;;;;;;;;5072849;28;20209;-75
2022/03/13 13:09:28;;;;;;;20.67;18.15;;;;;;;;;;5073275;28;20663;-75
2022/03/13 13:11:56;;;;;;;21.65;18.40;;;;;;;;;;5072731;28;20204;-75
2022/03/13 13:14:24;;;;;;;20.55;17.33;;;;;;;;;;5072463;28;20247;-75
2022/03/13 13:16:54;;;;;;;21.13;17.65;;;;;;;;;;5072047;28;20243;-75
2022/03/13 13:19:22;;;;;;;22.17;17.70;;;;;;;;;;5072654;28;20209;-75
2022/03/13 13:21:56;;;;;;;20.48;17.30;;;;;;;;;;5073002;28;20254;-75
2022/03/13 13:24:32;;;;;;;21.65;16.55;;;;;;;;;;5072158;28;20238;-75
2022/03/13 13:27:01;;;;;;;21.70;17.92;;;;;;;;;;5071769;28;20295;-75
2022/03/13 13:29:31;;;;;;;20.30;17.73;;;;;;;;;;5072414;28;20208;-75
2022/03/13 13:32:13;;;;;;;20.65;17.27;;;;;;;;;;5072570;28;20216;-75
2022/03/13 13:34:41;;;;;;;23.98;18.80;;;;;;;;;;5069175;28;20292;-75
2022/03/13 13:37:09;;;;;;;21.35;18.17;;;;;;;;;;5071068;28;20694;-75
2022/03/13 13:39:40;;;;;;;21.23;18.17;;;;;;;;;;5072179;28;20211;-75
2022/03/13 13:42:09;;;;;;;21.23;18.83;;;;;;;;;;5072429;28;20250;-75
2022/03/13 13:44:36;;;;;;;21.40;17.67;;;;;;;;;;5071746;28;20228;-75
2022/03/13 13:47:07;;;;;;;20.70;17.75;;;;;;;;;;5071461;28;20200;-75
2022/03/13 13:49:34;;;;;;;21.98;17.85;;;;;;;;;;5072049;28;20258;-75
2022/03/13 13:52:10;;;;;;;20.15;16.40;;;;;;;;;;5072084;28;20218;-76
2022/03/13 13:54:38;;;;;;;21.83;17.17;;;;;;;;;;5072201;28;20232;-75
2022/03/13 13:57:05;;;;;;;19.88;17.25;;;;;;;;;;5071758;28;20278;-75
2022/03/13 13:59:42;;;;;;;18.92;16.17;;;;;;;;;;5072524;28;20236;-75
2022/03/13 14:02:14;;;;;;;20.38;17.02;;;;;;;;;;5072414;28;20204;-75
2022/03/13 14:04:42;;;;;;;20.55;17.50;;;;;;;;;;5072170;28;20223;-75
2022/03/13 14:07:10;;;;;;;19.27;17.15;;;;;;;;;;5071824;28;20217;-75
2022/03/13 14:09:37;;;;;;;20.00;16.92;;;;;;;;;;5071852;28;20208;-75
2022/03/13 14:12:05;;;;;;;20.23;16.85;;;;;;;;;;5071691;28;20292;-75
2022/03/13 14:14:33;;;;;;;20.15;16.40;;;;;;;;;;5071452;28;20303;-75
2022/03/13 14:17:01;;;;;;;20.60;15.40;;;;;;;;;;5071266;28;20220;-75
2022/03/13 14:19:34;;;;;;;19.58;15.85;;;;;;;;;;5068591;28;20222;-75
2022/03/13 14:22:01;;;;;;;20.17;17.63;;;;;;;;;;5072240;28;20212;-77
2022/03/13 14:24:31;;;;;;;19.65;17.38;;;;;;;;;;5071519;28;20282;-75
2022/03/13 14:26:59;;;;;;;21.15;17.92;;;;;;;;;;5071774;28;20296;-75
2022/03/13 14:29:42;;;;;;;20.90;17.92;;;;;;;;;;5072132;28;20218;-77
2022/03/13 14:32:10;;;;;;;21.98;18.00;;;;;;;;;;5072622;28;20208;-75
2022/03/13 14:34:37;;;;;;;19.13;16.50;;;;;;;;;;5072221;28;20262;-75
2022/03/13 14:37:04;;;;;;;19.02;16.98;;;;;;;;;;5071648;28;20224;-75
2022/03/13 14:39:32;;;;;;;20.10;17.30;;;;;;;;;;5072224;28;20204;-76
2022/03/13 14:41:59;;;;;;;21.92;18.17;;;;;;;;;;5074745;28;20208;-76
2022/03/13 14:44:27;;;;;;;20.15;17.42;;;;;;;;;;5076396;28;20259;-74
2022/03/13 14:46:55;;;;;;;21.75;17.20;;;;;;;;;;5075951;28;20204;-75
2022/03/13 14:49:25;;;;;;;23.05;19.17;;;;;;;;;;5079748;28;20291;-74